Latest Weather Observations for Esperance

IDW60801

Issued at 4:02 am WST Friday 29 May 2015 (issued every 30 minutes, with the page automatically refreshed every 10 minutes)

About weather observations | Map of weather stations | Latest weather observations for WA | Other Formats
Station Details ID: 009789 Name: ESPERANCE Lat: -33.83 Lon: 121.89 Height: 25.0 m
Data from the previous 72 hours. | See also: Recent months at Esperance
Date/Time
WST
Temp
°C
App
Temp
°C
Dew
Point
Rel
Hum
%
Delta-T
°C
Wind Press
QNH
hPa
Press
MSL
hPa
Rain
since 9 am
mm
Dir
 
Spd
km/h
Gust
km/h
Spd
kts
Gust
kts
29/04:00am 7.5 5.5 7.1 97 0.2 WNW 7 9 4 5 1026.7 1026.7 0.4
29/03:30am 7.5 4.7 6.8 95 0.3 NNW 11 15 6 8 1026.5 1026.5 0.4
29/03:00am 8.0 6.0 7.1 94 0.4 NW 7 11 4 6 1026.3 1026.3 0.4
29/02:30am 8.2 5.9 7.3 94 0.4 WNW 9 11 5 6 1026.3 1026.3 0.4
29/02:00am 8.5 6.3 7.7 95 0.4 NNW 9 11 5 6 1026.3 1026.3 0.4
29/01:30am 9.2 7.5 8.4 95 0.4 NNW 7 9 4 5 1026.3 1026.3 0.4
29/01:00am 9.3 7.6 8.3 93 0.5 N 7 9 4 5 1026.3 1026.3 0.4
29/12:30am 10.4 9.1 9.2 92 0.6 NNE 6 6 3 3 1026.4 1026.4 0.4
29/12:00am 10.6 9.1 9.0 90 0.8 NE 7 9 4 5 1026.5 1026.5 0.4
 
Date/Time
WST
Temp
°C
App
Temp
°C
Dew
Point
Rel
Hum
%
Delta-T
°C
Wind Press
QNH
hPa
Press
MSL
hPa
Rain
since 9 am
mm
Dir
 
Spd
km/h
Gust
km/h
Spd
kts
Gust
kts
28/11:30pm 11.0 9.4 8.8 86 1.1 W 7 9 4 5 1026.5 1026.5 0.4
28/11:00pm 11.3 9.9 8.9 85 1.2 WNW 6 9 3 5 1026.5 1026.5 0.4
28/10:30pm 12.0 10.5 8.6 80 1.7 NW 6 7 3 4 1026.6 1026.6 0.4
28/10:00pm 11.8 9.9 9.2 84 1.3 WNW 9 11 5 6 1026.6 1026.6 0.2
28/09:30pm 11.7 9.9 9.3 85 1.2 WSW 9 13 5 7 1026.7 1026.7 0.2
28/09:00pm 11.7 9.5 9.5 86 1.1 SW 11 17 6 9 1026.8 1026.8 0.2
28/08:30pm 11.6 10.1 9.0 84 1.3 WNW 7 13 4 7 1026.6 1026.6 0.2
28/08:00pm 11.4 9.4 8.8 84 1.3 NNW 9 15 5 8 1026.2 1026.2 0.2
28/07:30pm 12.7 10.9 7.8 72 2.4 SSW 7 9 4 5 1025.9 1025.9 0.2
28/07:00pm 12.8 11.0 8.1 73 2.3 S 7 9 4 5 1025.5 1025.4 0.2
28/06:30pm 13.0 10.9 8.3 73 2.3 S 9 11 5 6 1025.4 1025.3 0.2
28/05:30pm 13.4 9.9 8.8 74 2.3 S 17 20 9 11 1024.7 1024.6 0.2
28/05:00pm 13.8 10.8 7.7 66 3.0 S 13 19 7 10 1024.4 1024.3 0.2
28/04:30pm 13.7 11.0 8.9 73 2.4 S 13 17 7 9 1024.3 1024.2 0.2
28/04:00pm 14.3 11.4 8.3 67 3.0 S 13 17 7 9 1024.0 1023.9 0.2
28/03:30pm 14.5 11.1 9.0 69 2.8 S 17 24 9 13 1023.9 1023.8 0.2
28/03:00pm 14.5 11.1 9.2 70 2.7 S 17 24 9 13 1023.7 1023.6 0.2
28/02:30pm 14.7 12.3 8.5 66 3.1 SSW 11 17 6 9 1023.6 1023.5 0.2
28/02:00pm 14.7 14.1 10.3 75 2.3 NNW 4 7 2 4 1023.4 1023.3 0.2
28/01:30pm 13.7 13.4 10.0 78 1.9 E 2 6 1 3 1023.4 1023.3 0.2
28/01:00pm 13.8 12.5 11.1 84 1.4 SSW 9 13 5 7 1023.7 1023.6 0.2
28/12:30pm 13.9 12.7 11.5 85 1.3 SE 9 15 5 8 1023.8 1023.7 0.2
28/12:00pm 14.2 12.8 11.0 81 1.7 SW 9 13 5 7 1024.0 1023.9 0.2
28/11:30am 14.0 13.8 10.5 79 1.8 WNW 2 9 1 5 1024.2 1024.1 0.2
28/11:00am 13.3 12.9 11.2 87 1.1 SE 4 7 2 4 1024.4 1024.3 0.2
28/10:43am 13.8 13.0 11.1 84 1.4 SSW 6 9 3 5 1024.6 1024.5 0.2
28/10:30am 13.4 13.3 10.9 85 1.3 NW 2 6 1 3 1024.5 1024.4 0.2
28/10:13am 13.2 12.4 11.1 87 1.1 SW 6 9 3 5 1024.6 1024.5 0.0
28/10:00am 13.2 12.4 11.1 87 1.1 S 6 7 3 4 1024.4 1024.3 0.0
28/09:30am 12.9 12.1 11.6 92 0.7 WSW 7 11 4 6 1024.4 1024.3 0.0
28/09:00am 12.9 11.8 12.0 94 0.5 WNW 9 15 5 8 1024.2 1024.1 1.6
28/08:30am 12.2 10.9 11.4 95 0.4 NW 9 13 5 7 1023.8 1023.7 1.6
28/08:00am 12.0 10.4 11.6 97 0.2 NW 11 15 6 8 1023.4 1023.3 1.6
28/07:30am 11.5 10.5 11.1 97 0.2 WNW 7 9 4 5 1023.2 1023.1 1.6
28/07:00am 11.2 10.3 10.8 97 0.2 W 6 11 3 6 1023.1 1023.0 1.6
28/06:30am 11.0 9.5 10.6 97 0.2 NW 9 11 5 6 1022.9 1022.8 1.4
28/05:55am 10.7 9.6 10.5 99 0.1 WNW 7 13 4 7 1022.5 1022.4 1.4
28/05:30am 10.7 9.1 10.3 97 0.2 WNW 9 15 5 8 1022.0 1021.9 1.4
28/05:00am 10.9 9.0 10.5 97 0.2 WNW 11 13 6 7 1021.7 1021.6 1.4
28/04:40am 10.8 8.9 10.4 97 0.2 WNW 11 13 6 7 1021.6 1021.5 1.4
28/04:30am 10.7 8.4 10.3 97 0.2 WNW 13 17 7 9 1021.5 1021.4 1.4
28/04:25am 10.6 8.2 10.2 97 0.2 WNW 13 17 7 9 1021.5 1021.4 1.4
28/04:20am 10.6 7.9 10.2 97 0.2 WNW 15 19 8 10 1021.5 1021.4 1.4
28/04:00am 10.6 8.2 10.2 97 0.2 WNW 13 17 7 9 1021.5 1021.4 1.4
28/03:49am 10.6 8.6 10.2 97 0.2 W 11 15 6 8 1021.4 1021.3 1.2
28/03:45am 10.6 8.6 10.2 97 0.2 W 11 19 6 10 1021.3 1021.2 1.2
28/03:30am 10.6 7.9 10.2 97 0.2 WNW 15 22 8 12 1021.1 1021.0 1.2
28/03:22am 10.6 7.0 10.0 96 0.3 WNW 19 22 10 12 1021.0 1020.9 1.2
28/03:04am 10.4 7.5 9.8 96 0.3 NW 15 20 8 11 1021.1 1021.0 1.2
28/03:00am 10.3 7.5 9.9 97 0.2 NW 15 20 8 11 1021.1 1021.0 1.2
28/02:51am 10.3 7.4 9.7 96 0.3 WNW 15 20 8 11 1021.1 1021.0 1.2
28/02:30am 10.1 7.1 9.1 93 0.5 WNW 15 22 8 12 1021.3 1021.2 1.2
28/02:22am 10.1 7.1 9.1 93 0.5 WNW 15 22 8 12 1021.3 1021.2 1.2
28/02:17am 10.1 7.1 9.1 93 0.5 WNW 15 20 8 11 1021.2 1021.1 1.2
28/02:00am 10.2 7.2 9.4 95 0.4 WNW 15 20 8 11 1021.3 1021.2 1.2
28/01:30am 10.5 6.9 8.5 87 1.0 WNW 17 26 9 14 1021.1 1021.0 0.4
28/01:29am 10.6 7.0 8.3 86 1.1 WNW 17 24 9 13 1021.2 1021.1 0.4
28/01:00am 11.5 7.7 5.9 68 2.6 WNW 15 20 8 11 1020.9 1020.8 0.0
28/12:30am 11.1 7.3 5.9 70 2.4 WNW 15 20 8 11 1021.0 1020.9 0.0
28/12:00am 11.4 7.5 5.5 67 2.7 WNW 15 19 8 10 1021.1 1021.0 0.0
 
Date/Time
WST
Temp
°C
App
Temp
°C
Dew
Point
Rel
Hum
%
Delta-T
°C
Wind Press
QNH
hPa
Press
MSL
hPa
Rain
since 9 am
mm
Dir
 
Spd
km/h
Gust
km/h
Spd
kts
Gust
kts
27/11:30pm 11.7 8.3 5.7 66 2.8 WNW 13 15 7 8 1021.0 1020.9 0.0
27/11:00pm 11.8 8.3 5.3 64 3.0 W 13 17 7 9 1021.1 1021.0 0.0
27/10:30pm 12.3 8.8 5.4 63 3.2 WNW 13 20 7 11 1020.9 1020.8 0.0
27/10:00pm 12.5 8.5 5.1 60 3.4 NW 15 22 8 12 1020.9 1020.8 0.0
27/09:30pm 12.8 7.9 5.2 60 3.5 NW 20 26 11 14 1020.9 1020.8 0.0
27/09:00pm 13.2 8.5 5.2 58 3.7 NW 19 26 10 14 1021.1 1021.0 0.0
27/08:30pm 12.3 8.1 5.6 63 3.1 NW 17 22 9 12 1020.8 1020.7 0.0
27/08:00pm 11.7 7.8 5.4 65 2.9 NW 15 19 8 10 1020.7 1020.6 0.0
27/07:30pm 11.6 7.7 5.5 66 2.8 NW 15 20 8 11 1020.6 1020.5 0.0
27/07:00pm 11.5 7.7 5.9 68 2.6 NW 15 20 8 11 1020.6 1020.5 0.0
27/06:30pm 11.5 8.2 6.2 70 2.5 NW 13 15 7 8 1020.2 1020.1 0.0
27/06:00pm 11.7 8.8 6.4 70 2.5 NW 11 17 6 9 1020.1 1020.0 0.0
27/05:30pm 13.0 10.1 6.7 65 3.0 WNW 11 13 6 7 1020.1 1020.0 0.0
27/05:00pm 13.6 10.7 6.7 63 3.3 W 11 17 6 9 1019.9 1019.8 0.0
27/04:30pm 14.9 11.7 6.7 58 4.0 W 13 20 7 11 1019.9 1019.8 0.0
27/04:00pm 15.8 12.0 5.8 51 4.8 W 15 22 8 12 1020.0 1019.9 0.0
27/03:30pm 16.3 12.5 6.0 50 5.0 WSW 15 24 8 13 1019.8 1019.7 0.0
27/03:00pm 16.6 12.1 6.1 50 5.1 WSW 19 28 10 15 1019.8 1019.7 0.0
27/02:30pm 16.5 12.1 4.6 45 5.6 WSW 17 26 9 14 1019.7 1019.6 0.0
27/02:00pm 17.0 12.8 5.6 47 5.5 W 17 26 9 14 1019.7 1019.6 0.0
27/01:30pm 16.9 12.3 5.4 46 5.5 WSW 19 30 10 16 1019.8 1019.7 0.0
27/01:00pm 16.9 11.5 6.2 49 5.2 W 24 35 13 19 1020.0 1019.9 0.0
27/12:30pm 15.7 9.9 6.4 54 4.5 W 26 43 14 23 1020.4 1020.3 0.0
27/12:00pm 16.5 10.5 5.4 48 5.3 WNW 26 35 14 19 1020.7 1020.6 0.0
27/11:30am 16.1 10.7 6.4 52 4.7 NW 24 33 13 18 1021.3 1021.2 0.0
27/11:00am 15.6 10.3 6.8 56 4.3 NW 24 35 13 19 1021.8 1021.7 0.0
27/10:30am 15.7 10.6 7.7 59 4.0 WNW 24 32 13 17 1022.1 1022.0 0.0
27/10:00am 14.5 8.9 7.1 61 3.6 WNW 26 33 14 18 1022.2 1022.1 0.0
27/09:30am 12.7 9.0 8.0 73 2.3 WNW 17 22 9 12 1022.4 1022.3 0.0
27/09:00am 11.9 7.8 7.8 76 2.0 WNW 19 24 10 13 1022.5 1022.4 2.8
27/08:30am 11.6 7.9 8.1 79 1.7 WNW 17 24 9 13 1022.5 1022.4 2.8
27/08:00am 10.7 7.4 8.2 84 1.2 WNW 15 20 8 11 1022.1 1022.0 2.8
27/07:30am 10.1 5.7 7.6 84 1.2 NW 20 24 11 13 1022.0 1021.9 2.8
27/07:00am 9.5 5.8 8.0 90 0.7 NW 17 24 9 13 1021.9 1021.8 2.8
27/06:30am 9.8 6.6 8.4 91 0.7 NW 15 20 8 11 1021.6 1021.5 2.8
27/06:00am 9.9 7.2 8.9 93 0.5 NW 13 17 7 9 1021.4 1021.3 2.8
27/05:30am 10.3 7.3 9.3 93 0.5 NW 15 19 8 10 1021.2 1021.1 2.8
27/05:00am 10.3 8.5 9.5 95 0.4 WNW 9 15 5 8 1021.2 1021.1 2.8
27/04:30am 10.8 8.7 9.6 92 0.6 WNW 11 17 6 9 1021.1 1021.0 2.8
27/04:00am 11.1 8.7 10.1 94 0.5 WNW 13 20 7 11 1021.2 1021.1 2.8
27/03:30am 10.9 8.1 10.1 95 0.4 NW 15 17 8 9 1021.4 1021.3 2.8
27/03:00am 11.2 9.3 10.6 96 0.3 NW 11 19 6 10 1021.4 1021.3 2.8
27/02:30am 11.5 10.0 10.7 95 0.4 W 9 15 5 8 1021.6 1021.5 2.8
27/02:00am 11.6 9.4 10.8 95 0.4 NW 13 17 7 9 1021.6 1021.5 2.8
27/01:30am 11.6 9.4 10.8 95 0.4 NW 13 17 7 9 1021.7 1021.6 2.8
27/01:00am 11.7 10.3 10.9 95 0.4 WNW 9 15 5 8 1022.0 1021.9 2.6
27/12:30am 11.7 10.0 11.1 96 0.3 NW 11 13 6 7 1022.0 1021.9 2.4
27/12:00am 11.7 10.4 11.1 96 0.3 W 9 13 5 7 1022.4 1022.3 2.4
 
Date/Time
WST
Temp
°C
App
Temp
°C
Dew
Point
Rel
Hum
%
Delta-T
°C
Wind Press
QNH
hPa
Press
MSL
hPa
Rain
since 9 am
mm
Dir
 
Spd
km/h
Gust
km/h
Spd
kts
Gust
kts
26/11:55pm 11.8 10.4 11.0 95 0.4 W 9 13 5 7 1022.5 1022.4 2.4
26/11:34pm 12.0 9.5 11.0 94 0.5 WNW 15 19 8 10 1022.6 1022.5 2.4
26/11:30pm 12.0 9.9 11.0 94 0.5 WNW 13 19 7 10 1022.8 1022.7 2.2
26/11:00pm 12.0 10.7 11.2 95 0.4 NW 9 11 5 6 1022.7 1022.6 2.2
26/10:30pm 12.4 11.1 11.4 94 0.5 NW 9 13 5 7 1022.9 1022.8 2.2
26/10:00pm 12.4 11.2 11.6 95 0.4 NW 9 11 5 6 1023.0 1022.9 2.2
26/09:59pm 12.4 11.2 11.6 95 0.4 NW 9 11 5 6 1023.0 1022.9 2.2
26/09:40pm 12.4 10.8 11.6 95 0.4 WNW 11 15 6 8 1023.4 1023.3 2.0
26/09:30pm 12.3 11.1 11.5 95 0.4 NNW 9 11 5 6 1023.1 1023.0 1.8
26/09:00pm 12.5 11.3 11.6 94 0.5 NW 9 11 5 6 1023.0 1022.9 1.8
26/08:30pm 12.5 11.3 11.6 94 0.5 NW 9 11 5 6 1023.1 1023.0 1.8
26/08:00pm 13.3 12.0 11.2 87 1.1 WSW 9 9 5 5 1023.0 1022.9 1.8
26/07:30pm 12.9 11.7 11.6 92 0.7 SW 9 13 5 7 1023.0 1022.9 1.8
26/07:00pm 13.1 11.6 12.0 93 0.6 WSW 11 19 6 10 1022.9 1022.8 1.6
26/06:41pm 13.6 12.3 11.1 85 1.3 SW 9 17 5 9 1022.7 1022.6 0.4
26/06:30pm 13.6 12.6 10.9 84 1.4 WSW 7 13 4 7 1022.4 1022.3 0.0
26/06:00pm 13.4 11.7 11.1 86 1.2 SW 11 15 6 8 1022.3 1022.2 0.0
26/05:30pm 13.8 12.2 11.5 86 1.2 SW 11 17 6 9 1022.2 1022.1 0.0
26/05:00pm 13.9 12.3 11.6 86 1.2 SW 11 15 6 8 1022.0 1021.9 0.0
26/04:30pm 14.7 12.0 11.7 82 1.6 SW 17 24 9 13 1021.8 1021.7 0.0
26/04:00pm 15.3 12.8 12.4 83 1.6 SW 17 28 9 15 1021.8 1021.7 0.0
26/03:30pm 16.0 14.4 12.7 81 1.8 SW 13 20 7 11 1021.3 1021.2 0.0
26/03:00pm 17.0 14.7 11.7 71 2.9 WSW 15 24 8 13 1021.1 1021.0 0.0
26/02:30pm 15.8 13.4 12.7 82 1.7 SW 17 26 9 14 1021.0 1020.9 0.0
26/02:00pm 16.0 11.9 12.7 81 1.8 SW 26 46 14 25 1020.8 1020.7 0.0
26/01:30pm 18.9 14.4 10.1 56 4.7 W 24 39 13 21 1020.4 1020.3 0.0
26/01:00pm 18.7 14.8 10.7 59 4.3 W 22 41 12 22 1020.5 1020.4 0.0
26/12:30pm 19.4 14.9 10.0 54 5.0 W 24 39 13 21 1020.6 1020.5 0.0
26/12:00pm 18.7 14.4 9.4 54 4.9 W 22 35 12 19 1020.6 1020.5 0.0
26/11:30am 18.6 13.4 9.0 53 5.0 W 26 41 14 22 1020.8 1020.7 0.0
26/11:00am 18.6 14.6 9.0 53 5.0 W 20 32 11 17 1021.0 1020.9 0.0
26/10:30am 18.2 15.0 11.2 63 3.8 WNW 19 26 10 14 1021.1 1021.0 0.0
26/10:00am 17.0 14.2 11.5 70 3.0 WNW 17 26 9 14 1021.3 1021.2 0.0
26/09:30am 15.4 12.6 11.3 76 2.2 WNW 17 22 9 12 1021.3 1021.2 0.0
26/09:00am 14.5 11.7 11.5 82 1.6 WNW 17 22 9 12 1021.1 1021.0 0.4
26/08:30am 12.8 9.4 10.7 87 1.1 WNW 19 24 10 13 1021.0 1020.9 0.4
26/08:00am 11.7 8.2 10.3 91 0.7 WNW 19 24 10 13 1021.1 1021.0 0.4
26/07:30am 10.9 8.1 10.1 95 0.4 NW 15 20 8 11 1020.9 1020.8 0.4
26/07:00am 10.2 7.3 9.8 97 0.2 NW 15 19 8 10 1020.6 1020.5 0.4
26/06:30am 10.5 7.8 10.3 99 0.1 WNW 15 22 8 12 1020.3 1020.2 0.4
26/06:00am 10.9 8.6 10.5 97 0.2 WNW 13 19 7 10 1019.7 1019.6 0.4
26/05:30am 10.8 8.9 10.6 99 0.1 NW 11 15 6 8 1019.4 1019.3 0.4
26/05:00am 11.0 8.0 10.8 99 0.1 WNW 17 20 9 11 1019.4 1019.3 0.4
26/04:30am 11.2 8.7 11.2 100 0.0 WNW 15 19 8 10 1019.6 1019.5 0.4

Other Formats:

Comma delimited format used in spreadsheet applications
http://www.bom.gov.au/fwo/IDW60801/IDW60801.94638.axf

JavaScript Object Notation format (JSON) in row-major order
http://www.bom.gov.au/fwo/IDW60801/IDW60801.94638.json